sensor_id;sensor_type;location;lat;lon;timestamp;temperature;humidity
55016;DHT22;40919;43.236;21.590;2023-03-09T00:00:33;307.90;2304.00
55016;DHT22;40919;43.236;21.590;2023-03-09T00:03:00;308.00;2304.00
55016;DHT22;40919;43.236;21.590;2023-03-09T00:05:26;307.90;2304.00
55016;DHT22;40919;43.236;21.590;2023-03-09T00:07:54;308.00;2304.00
55016;DHT22;40919;43.236;21.590;2023-03-09T00:10:21;308.00;2304.00
55016;DHT22;40919;43.236;21.590;2023-03-09T00:12:47;308.00;2304.00
55016;DHT22;40919;43.236;21.590;2023-03-09T00:15:13;308.00;2304.00
55016;DHT22;40919;43.236;21.590;2023-03-09T00:17:39;308.00;2304.00
55016;DHT22;40919;43.236;21.590;2023-03-09T00:20:06;308.10;2304.00
55016;DHT22;40919;43.236;21.590;2023-03-09T00:22:51;308.00;2304.00
55016;DHT22;40919;43.236;21.590;2023-03-09T00:25:19;308.10;2304.00
55016;DHT22;40919;43.236;21.590;2023-03-09T00:27:48;308.10;2304.00
55016;DHT22;40919;43.236;21.590;2023-03-09T00:30:15;308.00;2304.00
55016;DHT22;40919;43.236;21.590;2023-03-09T00:32:42;308.00;2304.00
55016;DHT22;40919;43.236;21.590;2023-03-09T00:35:08;308.00;2304.00
55016;DHT22;40919;43.236;21.590;2023-03-09T00:37:35;307.90;2304.00
55016;DHT22;40919;43.236;21.590;2023-03-09T00:40:01;307.90;2304.00
55016;DHT22;40919;43.236;21.590;2023-03-09T00:42:27;307.80;2304.00
55016;DHT22;40919;43.236;21.590;2023-03-09T00:44:52;307.80;2304.00
55016;DHT22;40919;43.236;21.590;2023-03-09T00:47:18;307.80;2304.00
55016;DHT22;40919;43.236;21.590;2023-03-09T00:49:55;307.80;2304.00
55016;DHT22;40919;43.236;21.590;2023-03-09T00:52:21;307.50;2304.00
55016;DHT22;40919;43.236;21.590;2023-03-09T00:54:46;307.60;2304.00
55016;DHT22;40919;43.236;21.590;2023-03-09T00:57:12;307.60;2304.00
55016;DHT22;40919;43.236;21.590;2023-03-09T00:59:38;307.50;2304.00
55016;DHT22;40919;43.236;21.590;2023-03-09T01:02:04;307.40;2304.00
55016;DHT22;40919;43.236;21.590;2023-03-09T01:04:29;307.30;2304.00
55016;DHT22;40919;43.236;21.590;2023-03-09T01:06:55;307.40;2304.00
55016;DHT22;40919;43.236;21.590;2023-03-09T01:09:21;307.30;2304.00
55016;DHT22;40919;43.236;21.590;2023-03-09T01:11:47;307.30;2304.00
55016;DHT22;40919;43.236;21.590;2023-03-09T01:14:12;307.30;2304.00
55016;DHT22;40919;43.236;21.590;2023-03-09T01:16:38;307.20;2304.00
55016;DHT22;40919;43.236;21.590;2023-03-09T01:19:04;282.50;2278.40
55016;DHT22;40919;43.236;21.590;2023-03-09T01:21:30;307.20;2304.00
55016;DHT22;40919;43.236;21.590;2023-03-09T01:23:56;307.20;2304.00
55016;DHT22;40919;43.236;21.590;2023-03-09T01:26:21;307.20;2304.00
55016;DHT22;40919;43.236;21.590;2023-03-09T01:28:47;282.40;2278.40
55016;DHT22;40919;43.236;21.590;2023-03-09T01:31:14;282.20;2278.40
55016;DHT22;40919;43.236;21.590;2023-03-09T01:33:41;282.30;2278.40
55016;DHT22;40919;43.236;21.590;2023-03-09T01:36:09;282.30;2278.40
55016;DHT22;40919;43.236;21.590;2023-03-09T01:38:37;282.20;2278.40
55016;DHT22;40919;43.236;21.590;2023-03-09T01:41:03;282.20;2278.40
55016;DHT22;40919;43.236;21.590;2023-03-09T01:43:36;282.20;2278.40
55016;DHT22;40919;43.236;21.590;2023-03-09T01:55:12;282.10;2278.40
55016;DHT22;40919;43.236;21.590;2023-03-09T01:59:49;282.10;2278.40
55016;DHT22;40919;43.236;21.590;2023-03-09T02:02:16;282.20;2278.40
55016;DHT22;40919;43.236;21.590;2023-03-09T02:04:51;282.00;2278.40
55016;DHT22;40919;43.236;21.590;2023-03-09T02:07:21;282.00;2278.40
55016;DHT22;40919;43.236;21.590;2023-03-09T02:09:54;282.00;2278.40
55016;DHT22;40919;43.236;21.590;2023-03-09T02:12:23;282.00;2278.40
55016;DHT22;40919;43.236;21.590;2023-03-09T02:14:50;281.80;2278.40
55016;DHT22;40919;43.236;21.590;2023-03-09T02:17:17;282.00;2278.40
55016;DHT22;40919;43.236;21.590;2023-03-09T02:23:23;281.90;2278.40
55016;DHT22;40919;43.236;21.590;2023-03-09T02:28:33;281.90;2278.40
55016;DHT22;40919;43.236;21.590;2023-03-09T02:31:00;281.70;2278.40
55016;DHT22;40919;43.236;21.590;2023-03-09T02:33:28;281.70;2278.40
55016;DHT22;40919;43.236;21.590;2023-03-09T02:35:55;281.70;2278.40
55016;DHT22;40919;43.236;21.590;2023-03-09T02:38:21;281.70;2278.40
55016;DHT22;40919;43.236;21.590;2023-03-09T02:40:48;281.70;2278.40
55016;DHT22;40919;43.236;21.590;2023-03-09T02:43:16;282.00;2278.40
55016;DHT22;40919;43.236;21.590;2023-03-09T02:45:44;281.80;2278.40
55016;DHT22;40919;43.236;21.590;2023-03-09T02:48:11;281.70;2278.40
55016;DHT22;40919;43.236;21.590;2023-03-09T02:50:36;256.90;2252.80
55016;DHT22;40919;43.236;21.590;2023-03-09T02:53:02;256.90;2252.80
55016;DHT22;40919;43.236;21.590;2023-03-09T02:55:28;256.70;2252.80
55016;DHT22;40919;43.236;21.590;2023-03-09T02:57:54;256.80;2252.80
55016;DHT22;40919;43.236;21.590;2023-03-09T03:00:19;256.80;2252.80
55016;DHT22;40919;43.236;21.590;2023-03-09T03:02:48;256.60;2252.80
55016;DHT22;40919;43.236;21.590;2023-03-09T03:05:14;256.70;2252.80
55016;DHT22;40919;43.236;21.590;2023-03-09T03:07:40;256.60;2252.80
55016;DHT22;40919;43.236;21.590;2023-03-09T03:10:06;256.70;2252.80
55016;DHT22;40919;43.236;21.590;2023-03-09T03:12:32;256.60;2252.80
55016;DHT22;40919;43.236;21.590;2023-03-09T03:14:58;256.40;2252.80
55016;DHT22;40919;43.236;21.590;2023-03-09T03:17:24;256.40;2252.80
55016;DHT22;40919;43.236;21.590;2023-03-09T03:19:50;256.30;2252.80
55016;DHT22;40919;43.236;21.590;2023-03-09T03:22:17;256.50;2252.80
55016;DHT22;40919;43.236;21.590;2023-03-09T03:24:42;256.50;2252.80
55016;DHT22;40919;43.236;21.590;2023-03-09T03:27:08;256.60;2252.80
55016;DHT22;40919;43.236;21.590;2023-03-09T03:29:34;256.50;2252.80
55016;DHT22;40919;43.236;21.590;2023-03-09T03:32:00;256.50;2252.80
55016;DHT22;40919;43.236;21.590;2023-03-09T03:34:25;256.50;2252.80
55016;DHT22;40919;43.236;21.590;2023-03-09T03:36:51;256.40;2252.80
55016;DHT22;40919;43.236;21.590;2023-03-09T03:39:17;256.50;2252.80
55016;DHT22;40919;43.236;21.590;2023-03-09T03:41:43;256.50;2252.80
55016;DHT22;40919;43.236;21.590;2023-03-09T03:44:08;256.40;2252.80
55016;DHT22;40919;43.236;21.590;2023-03-09T03:46:34;256.40;2252.80
55016;DHT22;40919;43.236;21.590;2023-03-09T03:49:00;256.50;2252.80
55016;DHT22;40919;43.236;21.590;2023-03-09T03:51:25;256.40;2252.80
55016;DHT22;40919;43.236;21.590;2023-03-09T03:53:51;256.50;2252.80
55016;DHT22;40919;43.236;21.590;2023-03-09T03:56:17;256.40;2252.80
55016;DHT22;40919;43.236;21.590;2023-03-09T03:58:43;256.30;2252.80
55016;DHT22;40919;43.236;21.590;2023-03-09T04:01:09;256.40;2252.80
55016;DHT22;40919;43.236;21.590;2023-03-09T04:03:34;256.30;2252.80
55016;DHT22;40919;43.236;21.590;2023-03-09T04:06:00;256.30;2252.80
55016;DHT22;40919;43.236;21.590;2023-03-09T04:08:28;256.30;2252.80
55016;DHT22;40919;43.236;21.590;2023-03-09T04:10:54;256.30;2252.80
55016;DHT22;40919;43.236;21.590;2023-03-09T04:13:20;256.30;2252.80
55016;DHT22;40919;43.236;21.590;2023-03-09T04:15:46;256.30;2252.80
55016;DHT22;40919;43.236;21.590;2023-03-09T04:18:12;256.50;2252.80
55016;DHT22;40919;43.236;21.590;2023-03-09T04:20:39;256.30;2252.80
55016;DHT22;40919;43.236;21.590;2023-03-09T04:23:06;256.30;2252.80
55016;DHT22;40919;43.236;21.590;2023-03-09T04:25:32;256.40;2252.80
55016;DHT22;40919;43.236;21.590;2023-03-09T04:27:58;256.50;2252.80
55016;DHT22;40919;43.236;21.590;2023-03-09T04:30:24;256.50;2252.80
55016;DHT22;40919;43.236;21.590;2023-03-09T04:32:50;256.50;2252.80
55016;DHT22;40919;43.236;21.590;2023-03-09T04:35:16;256.50;2252.80
55016;DHT22;40919;43.236;21.590;2023-03-09T04:37:42;256.60;2252.80
55016;DHT22;40919;43.236;21.590;2023-03-09T04:40:12;256.60;2252.80
55016;DHT22;40919;43.236;21.590;2023-03-09T04:42:37;256.60;2252.80
55016;DHT22;40919;43.236;21.590;2023-03-09T04:45:03;256.50;2252.80
55016;DHT22;40919;43.236;21.590;2023-03-09T04:47:30;256.50;2252.80
55016;DHT22;40919;43.236;21.590;2023-03-09T04:49:55;256.50;2252.80
55016;DHT22;40919;43.236;21.590;2023-03-09T04:52:21;256.40;2252.80
55016;DHT22;40919;43.236;21.590;2023-03-09T04:54:47;256.40;2252.80
55016;DHT22;40919;43.236;21.590;2023-03-09T04:57:14;256.30;2252.80
55016;DHT22;40919;43.236;21.590;2023-03-09T04:59:39;256.50;2252.80
55016;DHT22;40919;43.236;21.590;2023-03-09T05:02:05;256.40;2252.80
55016;DHT22;40919;43.236;21.590;2023-03-09T05:04:32;256.10;2252.80
55016;DHT22;40919;43.236;21.590;2023-03-09T05:06:57;256.20;2252.80
55016;DHT22;40919;43.236;21.590;2023-03-09T05:09:23;256.20;2252.80
55016;DHT22;40919;43.236;21.590;2023-03-09T05:11:49;256.10;2252.80
55016;DHT22;40919;43.236;21.590;2023-03-09T05:14:18;256.10;2252.80
55016;DHT22;40919;43.236;21.590;2023-03-09T05:16:45;256.10;2252.80
55016;DHT22;40919;43.236;21.590;2023-03-09T05:19:11;256.10;2252.80
55016;DHT22;40919;43.236;21.590;2023-03-09T05:21:36;256.10;2252.80
55016;DHT22;40919;43.236;21.590;2023-03-09T05:24:03;256.10;2252.80
55016;DHT22;40919;43.236;21.590;2023-03-09T05:26:29;256.20;2252.80
55016;DHT22;40919;43.236;21.590;2023-03-09T05:28:55;256.10;2252.80
55016;DHT22;40919;43.236;21.590;2023-03-09T05:31:20;256.20;2252.80
55016;DHT22;40919;43.236;21.590;2023-03-09T05:33:47;256.20;2252.80
55016;DHT22;40919;43.236;21.590;2023-03-09T05:36:18;256.30;2252.80
55016;DHT22;40919;43.236;21.590;2023-03-09T05:38:44;256.30;2252.80
55016;DHT22;40919;43.236;21.590;2023-03-09T05:41:10;256.30;2252.80
55016;DHT22;40919;43.236;21.590;2023-03-09T05:43:36;256.20;2252.80
55016;DHT22;40919;43.236;21.590;2023-03-09T05:46:02;256.20;2252.80
55016;DHT22;40919;43.236;21.590;2023-03-09T05:48:28;256.30;2252.80
55016;DHT22;40919;43.236;21.590;2023-03-09T05:50:54;256.30;2252.80
55016;DHT22;40919;43.236;21.590;2023-03-09T05:53:24;256.40;2252.80
55016;DHT22;40919;43.236;21.590;2023-03-09T05:55:53;256.40;2252.80
55016;DHT22;40919;43.236;21.590;2023-03-09T05:58:19;256.50;2252.80
55016;DHT22;40919;43.236;21.590;2023-03-09T06:00:45;256.60;2252.80
55016;DHT22;40919;43.236;21.590;2023-03-09T06:03:11;256.60;2252.80
55016;DHT22;40919;43.236;21.590;2023-03-09T06:05:37;256.60;2252.80
55016;DHT22;40919;43.236;21.590;2023-03-09T06:08:03;256.80;2252.80
55016;DHT22;40919;43.236;21.590;2023-03-09T06:10:28;256.90;2252.80
55016;DHT22;40919;43.236;21.590;2023-03-09T06:12:54;256.90;2252.80
55016;DHT22;40919;43.236;21.590;2023-03-09T06:15:20;281.60;2278.40
55016;DHT22;40919;43.236;21.590;2023-03-09T06:17:46;281.70;2278.40
55016;DHT22;40919;43.236;21.590;2023-03-09T06:20:11;281.70;2278.40
55016;DHT22;40919;43.236;21.590;2023-03-09T06:22:37;281.80;2278.40
55016;DHT22;40919;43.236;21.590;2023-03-09T06:25:07;281.90;2278.40
55016;DHT22;40919;43.236;21.590;2023-03-09T06:27:36;282.10;2278.40
55016;DHT22;40919;43.236;21.590;2023-03-09T06:30:02;282.10;2278.40
55016;DHT22;40919;43.236;21.590;2023-03-09T06:32:31;282.20;2278.40
55016;DHT22;40919;43.236;21.590;2023-03-09T06:34:57;282.30;2278.40
55016;DHT22;40919;43.236;21.590;2023-03-09T06:37:23;282.40;2278.40
55016;DHT22;40919;43.236;21.590;2023-03-09T06:39:49;282.40;2278.40
55016;DHT22;40919;43.236;21.590;2023-03-09T06:42:14;282.50;2278.40
55016;DHT22;40919;43.236;21.590;2023-03-09T06:44:40;307.20;2304.00
55016;DHT22;40919;43.236;21.590;2023-03-09T06:47:08;307.20;2304.00
55016;DHT22;40919;43.236;21.590;2023-03-09T06:49:34;307.30;2304.00
55016;DHT22;40919;43.236;21.590;2023-03-09T06:52:00;307.40;2304.00
55016;DHT22;40919;43.236;21.590;2023-03-09T06:54:26;307.50;2304.00
55016;DHT22;40919;43.236;21.590;2023-03-09T06:56:51;307.60;2304.00
55016;DHT22;40919;43.236;21.590;2023-03-09T06:59:18;307.60;2304.00
55016;DHT22;40919;43.236;21.590;2023-03-09T07:01:43;308.10;2304.00
55016;DHT22;40919;43.236;21.590;2023-03-09T07:04:09;332.90;2329.60
55016;DHT22;40919;43.236;21.590;2023-03-09T07:06:35;333.10;2329.60
55016;DHT22;40919;43.236;21.590;2023-03-09T07:09:00;333.30;2329.60
55016;DHT22;40919;43.236;21.590;2023-03-09T07:11:26;333.40;2329.60
55016;DHT22;40919;43.236;21.590;2023-03-09T07:13:52;333.50;2329.60
55016;DHT22;40919;43.236;21.590;2023-03-09T07:16:18;333.70;2329.60
55016;DHT22;40919;43.236;21.590;2023-03-09T07:18:43;358.40;2329.60
55016;DHT22;40919;43.236;21.590;2023-03-09T07:21:09;358.50;2329.60
55016;DHT22;40919;43.236;21.590;2023-03-09T07:23:35;358.50;2329.60
55016;DHT22;40919;43.236;21.590;2023-03-09T07:26:03;358.60;2329.60
55016;DHT22;40919;43.236;21.590;2023-03-09T07:28:30;358.70;2329.60
55016;DHT22;40919;43.236;21.590;2023-03-09T07:30:56;358.70;2329.60
55016;DHT22;40919;43.236;21.590;2023-03-09T07:33:22;358.70;2329.60
55016;DHT22;40919;43.236;21.590;2023-03-09T07:35:48;358.80;2329.60
55016;DHT22;40919;43.236;21.590;2023-03-09T07:38:14;358.80;2329.60
55016;DHT22;40919;43.236;21.590;2023-03-09T07:40:40;358.80;2329.60
55016;DHT22;40919;43.236;21.590;2023-03-09T07:43:06;358.80;2329.60
55016;DHT22;40919;43.236;21.590;2023-03-09T07:45:32;358.90;2329.60
55016;DHT22;40919;43.236;21.590;2023-03-09T07:47:57;358.90;2329.60
55016;DHT22;40919;43.236;21.590;2023-03-09T07:50:23;359.00;2329.60
55016;DHT22;40919;43.236;21.590;2023-03-09T07:52:49;359.00;2329.60
55016;DHT22;40919;43.236;21.590;2023-03-09T07:55:15;359.00;2329.60
55016;DHT22;40919;43.236;21.590;2023-03-09T07:57:41;359.10;2329.60
55016;DHT22;40919;43.236;21.590;2023-03-09T08:00:10;359.20;2329.60
55016;DHT22;40919;43.236;21.590;2023-03-09T08:02:40;359.30;2329.60
55016;DHT22;40919;43.236;21.590;2023-03-09T08:05:08;384.00;2329.60
55016;DHT22;40919;43.236;21.590;2023-03-09T08:07:35;384.20;2329.60
55016;DHT22;40919;43.236;21.590;2023-03-09T08:10:01;384.20;2329.60
55016;DHT22;40919;43.236;21.590;2023-03-09T08:12:27;384.20;2329.60
55016;DHT22;40919;43.236;21.590;2023-03-09T08:14:53;384.30;2329.60
55016;DHT22;40919;43.236;21.590;2023-03-09T08:17:18;384.40;2329.60
55016;DHT22;40919;43.236;21.590;2023-03-09T08:19:44;384.40;2329.60
55016;DHT22;40919;43.236;21.590;2023-03-09T08:22:10;384.50;2329.60
55016;DHT22;40919;43.236;21.590;2023-03-09T08:24:36;384.70;2329.60
55016;DHT22;40919;43.236;21.590;2023-03-09T08:27:02;384.70;2329.60
55016;DHT22;40919;43.236;21.590;2023-03-09T08:29:28;384.90;2329.60
55016;DHT22;40919;43.236;21.590;2023-03-09T08:31:54;409.60;2355.20
55016;DHT22;40919;43.236;21.590;2023-03-09T08:34:20;409.70;2355.20
55016;DHT22;40919;43.236;21.590;2023-03-09T08:36:46;409.70;2355.20
55016;DHT22;40919;43.236;21.590;2023-03-09T08:39:12;409.80;2355.20
55016;DHT22;40919;43.236;21.590;2023-03-09T08:41:38;409.90;2355.20
55016;DHT22;40919;43.236;21.590;2023-03-09T08:44:03;409.90;2355.20
55016;DHT22;40919;43.236;21.590;2023-03-09T08:46:29;410.00;2329.60
55016;DHT22;40919;43.236;21.590;2023-03-09T08:48:55;410.00;2329.60
55016;DHT22;40919;43.236;21.590;2023-03-09T08:51:21;410.10;2329.60
55016;DHT22;40919;43.236;21.590;2023-03-09T08:53:47;410.00;2329.60
55016;DHT22;40919;43.236;21.590;2023-03-09T08:56:14;410.30;2329.60
55016;DHT22;40919;43.236;21.590;2023-03-09T08:58:40;410.30;2304.00
55016;DHT22;40919;43.236;21.590;2023-03-09T09:01:08;410.50;2304.00
55016;DHT22;40919;43.236;21.590;2023-03-09T09:03:34;410.50;2278.40
55016;DHT22;40919;43.236;21.590;2023-03-09T09:06:06;410.50;2278.40
55016;DHT22;40919;43.236;21.590;2023-03-09T09:08:32;435.20;2278.40
55016;DHT22;40919;43.236;21.590;2023-03-09T09:10:58;435.30;2278.40
55016;DHT22;40919;43.236;21.590;2023-03-09T09:13:24;435.40;2278.40
55016;DHT22;40919;43.236;21.590;2023-03-09T09:15:54;435.50;2252.80
55016;DHT22;40919;43.236;21.590;2023-03-09T09:18:21;435.50;2252.80
55016;DHT22;40919;43.236;21.590;2023-03-09T09:20:47;435.50;2252.80
55016;DHT22;40919;43.236;21.590;2023-03-09T09:23:13;435.50;2252.80
55016;DHT22;40919;43.236;21.590;2023-03-09T09:25:39;435.60;2252.80
55016;DHT22;40919;43.236;21.590;2023-03-09T09:28:05;435.60;2227.20
55016;DHT22;40919;43.236;21.590;2023-03-09T09:30:31;435.80;2252.80
55016;DHT22;40919;43.236;21.590;2023-03-09T09:32:59;435.80;2227.20
55016;DHT22;40919;43.236;21.590;2023-03-09T09:35:26;435.90;2227.20
55016;DHT22;40919;43.236;21.590;2023-03-09T09:37:52;436.00;2227.20
55016;DHT22;40919;43.236;21.590;2023-03-09T09:40:20;436.10;2227.20
55016;DHT22;40919;43.236;21.590;2023-03-09T09:42:47;460.80;2227.20
55016;DHT22;40919;43.236;21.590;2023-03-09T09:45:35;460.80;2227.20
55016;DHT22;40919;43.236;21.590;2023-03-09T09:48:04;436.10;2227.20
55016;DHT22;40919;43.236;21.590;2023-03-09T09:53:48;460.80;2252.80
55016;DHT22;40919;43.236;21.590;2023-03-09T09:56:19;436.10;2201.60
55016;DHT22;40919;43.236;21.590;2023-03-09T09:58:54;460.80;2227.20
55016;DHT22;40919;43.236;21.590;2023-03-09T10:01:28;460.90;2252.80
55016;DHT22;40919;43.236;21.590;2023-03-09T10:03:59;460.90;2252.80
55016;DHT22;40919;43.236;21.590;2023-03-09T10:06:28;461.00;2252.80
55016;DHT22;40919;43.236;21.590;2023-03-09T10:08:58;461.10;2252.80
55016;DHT22;40919;43.236;21.590;2023-03-09T10:11:43;461.10;2227.20
55016;DHT22;40919;43.236;21.590;2023-03-09T10:16:55;461.20;2227.20
55016;DHT22;40919;43.236;21.590;2023-03-09T10:19:31;461.20;2227.20
55016;DHT22;40919;43.236;21.590;2023-03-09T10:22:01;461.20;2227.20
55016;DHT22;40919;43.236;21.590;2023-03-09T10:25:07;461.30;2201.60
55016;DHT22;40919;43.236;21.590;2023-03-09T10:27:53;461.30;2227.20
55016;DHT22;40919;43.236;21.590;2023-03-09T10:32:55;461.60;2201.60
55016;DHT22;40919;43.236;21.590;2023-03-09T10:35:37;461.60;2176.00
55016;DHT22;40919;43.236;21.590;2023-03-09T10:38:13;461.70;2176.00
55016;DHT22;40919;43.236;21.590;2023-03-09T10:40:49;461.70;2176.00
55016;DHT22;40919;43.236;21.590;2023-03-09T10:43:25;486.40;2176.00
55016;DHT22;40919;43.236;21.590;2023-03-09T10:45:55;461.70;2176.00
55016;DHT22;40919;43.236;21.590;2023-03-09T10:48:23;461.70;2176.00
55016;DHT22;40919;43.236;21.590;2023-03-09T10:51:04;486.40;2176.00
55016;DHT22;40919;43.236;21.590;2023-03-09T10:53:35;486.40;2150.40
55016;DHT22;40919;43.236;21.590;2023-03-09T11:01:28;486.70;2124.80
55016;DHT22;40919;43.236;21.590;2023-03-09T11:03:55;486.80;2124.80
55016;DHT22;40919;43.236;21.590;2023-03-09T11:11:26;486.70;2099.20
55016;DHT22;40919;43.236;21.590;2023-03-09T11:13:53;486.80;2099.20
55016;DHT22;40919;43.236;21.590;2023-03-09T11:16:30;486.90;2099.20
55016;DHT22;40919;43.236;21.590;2023-03-09T11:19:14;486.80;2099.20
55016;DHT22;40919;43.236;21.590;2023-03-09T11:24:13;486.80;2099.20
55016;DHT22;40919;43.236;21.590;2023-03-09T11:26:53;487.00;2099.20
55016;DHT22;40919;43.236;21.590;2023-03-09T11:32:11;512.10;2048.00
55016;DHT22;40919;43.236;21.590;2023-03-09T11:34:40;512.30;2022.40
55016;DHT22;40919;43.236;21.590;2023-03-09T11:37:21;512.60;2022.40
55016;DHT22;40919;43.236;21.590;2023-03-09T11:44:49;537.90;1996.80
55016;DHT22;40919;43.236;21.590;2023-03-09T11:47:25;538.00;1971.20
55016;DHT22;40919;43.236;21.590;2023-03-09T11:49:59;537.70;1996.80
55016;DHT22;40919;43.236;21.590;2023-03-09T11:52:32;537.80;1996.80
55016;DHT22;40919;43.236;21.590;2023-03-09T11:55:05;537.80;1996.80
55016;DHT22;40919;43.236;21.590;2023-03-09T11:57:34;512.80;1996.80
55016;DHT22;40919;43.236;21.590;2023-03-09T12:00:06;512.90;1996.80
55016;DHT22;40919;43.236;21.590;2023-03-09T12:05:13;512.50;1996.80
55016;DHT22;40919;43.236;21.590;2023-03-09T12:08:52;512.20;2022.40
55016;DHT22;40919;43.236;21.590;2023-03-09T12:10:54;512.00;2022.40
55016;DHT22;40919;43.236;21.590;2023-03-09T12:13:28;487.20;2048.00
55016;DHT22;40919;43.236;21.590;2023-03-09T12:16:04;487.00;2073.60
55016;DHT22;40919;43.236;21.590;2023-03-09T12:18:34;487.00;2073.60
55016;DHT22;40919;43.236;21.590;2023-03-09T12:21:08;486.90;2099.20
55016;DHT22;40919;43.236;21.590;2023-03-09T12:28:33;486.50;2124.80
55016;DHT22;40919;43.236;21.590;2023-03-09T12:30:59;486.50;2124.80
55016;DHT22;40919;43.236;21.590;2023-03-09T12:34:02;486.50;2124.80
55016;DHT22;40919;43.236;21.590;2023-03-09T12:36:31;486.60;2124.80
55016;DHT22;40919;43.236;21.590;2023-03-09T12:42:02;486.50;2124.80
55016;DHT22;40919;43.236;21.590;2023-03-09T12:50:47;461.60;2124.80
55016;DHT22;40919;43.236;21.590;2023-03-09T12:53:20;461.50;2150.40
55016;DHT22;40919;43.236;21.590;2023-03-09T12:55:56;461.50;2150.40
55016;DHT22;40919;43.236;21.590;2023-03-09T13:09:00;461.30;2252.80
55016;DHT22;40919;43.236;21.590;2023-03-09T13:13:59;461.10;2304.00
55016;DHT22;40919;43.236;21.590;2023-03-09T13:24:35;460.90;2278.40
55016;DHT22;40919;43.236;21.590;2023-03-09T13:27:28;460.80;2278.40
55016;DHT22;40919;43.236;21.590;2023-03-09T13:30:18;460.80;2278.40
55016;DHT22;40919;43.236;21.590;2023-03-09T13:35:35;460.80;2252.80
55016;DHT22;40919;43.236;21.590;2023-03-09T13:38:02;436.10;2227.20
55016;DHT22;40919;43.236;21.590;2023-03-09T13:40:33;460.80;2252.80
55016;DHT22;40919;43.236;21.590;2023-03-09T13:43:16;461.00;2278.40
55016;DHT22;40919;43.236;21.590;2023-03-09T13:46:03;460.80;2252.80
55016;DHT22;40919;43.236;21.590;2023-03-09T13:48:32;460.90;2252.80
55016;DHT22;40919;43.236;21.590;2023-03-09T13:50:59;460.90;2252.80
55016;DHT22;40919;43.236;21.590;2023-03-09T13:53:27;460.80;2252.80
55016;DHT22;40919;43.236;21.590;2023-03-09T13:55:58;460.80;2252.80
55016;DHT22;40919;43.236;21.590;2023-03-09T13:58:26;460.80;2278.40
55016;DHT22;40919;43.236;21.590;2023-03-09T14:00:59;460.90;2252.80
55016;DHT22;40919;43.236;21.590;2023-03-09T14:03:26;461.60;2201.60
55016;DHT22;40919;43.236;21.590;2023-03-09T14:08:26;486.90;2150.40
55016;DHT22;40919;43.236;21.590;2023-03-09T14:10:54;487.10;2150.40
55016;DHT22;40919;43.236;21.590;2023-03-09T14:13:26;486.80;2150.40
55016;DHT22;40919;43.236;21.590;2023-03-09T14:18:37;461.60;2201.60
55016;DHT22;40919;43.236;21.590;2023-03-09T14:24:08;461.20;2227.20
55016;DHT22;40919;43.236;21.590;2023-03-09T14:26:34;461.10;2227.20
55016;DHT22;40919;43.236;21.590;2023-03-09T14:29:27;461.20;2227.20
55016;DHT22;40919;43.236;21.590;2023-03-09T14:32:22;461.10;2252.80
55016;DHT22;40919;43.236;21.590;2023-03-09T14:34:50;460.90;2252.80
55016;DHT22;40919;43.236;21.590;2023-03-09T14:39:53;460.80;2252.80
55016;DHT22;40919;43.236;21.590;2023-03-09T14:42:33;460.80;2278.40
55016;DHT22;40919;43.236;21.590;2023-03-09T14:45:20;460.80;2278.40
55016;DHT22;40919;43.236;21.590;2023-03-09T14:47:46;460.80;2278.40
55016;DHT22;40919;43.236;21.590;2023-03-09T14:50:18;436.10;2252.80
55016;DHT22;40919;43.236;21.590;2023-03-09T14:52:45;460.80;2278.40
55016;DHT22;40919;43.236;21.590;2023-03-09T14:55:23;460.90;2278.40
55016;DHT22;40919;43.236;21.590;2023-03-09T14:57:49;460.90;2278.40
55016;DHT22;40919;43.236;21.590;2023-03-09T15:00:20;460.80;2278.40
55016;DHT22;40919;43.236;21.590;2023-03-09T15:02:47;460.80;2278.40
55016;DHT22;40919;43.236;21.590;2023-03-09T15:05:16;460.80;2278.40
55016;DHT22;40919;43.236;21.590;2023-03-09T15:07:42;460.80;2278.40
55016;DHT22;40919;43.236;21.590;2023-03-09T15:10:09;460.90;2278.40
55016;DHT22;40919;43.236;21.590;2023-03-09T15:12:34;460.90;2278.40
55016;DHT22;40919;43.236;21.590;2023-03-09T15:15:00;460.90;2278.40
55016;DHT22;40919;43.236;21.590;2023-03-09T15:17:26;460.90;2278.40
55016;DHT22;40919;43.236;21.590;2023-03-09T15:19:52;460.90;2252.80
55016;DHT22;40919;43.236;21.590;2023-03-09T15:22:18;460.90;2252.80
55016;DHT22;40919;43.236;21.590;2023-03-09T15:24:47;460.90;2252.80
55016;DHT22;40919;43.236;21.590;2023-03-09T15:27:13;460.80;2252.80
55016;DHT22;40919;43.236;21.590;2023-03-09T15:29:39;460.90;2252.80
55016;DHT22;40919;43.236;21.590;2023-03-09T15:32:05;461.40;2252.80
55016;DHT22;40919;43.236;21.590;2023-03-09T15:34:37;460.90;2252.80
55016;DHT22;40919;43.236;21.590;2023-03-09T15:37:03;461.50;2252.80
55016;DHT22;40919;43.236;21.590;2023-03-09T15:39:29;436.10;2227.20
55016;DHT22;40919;43.236;21.590;2023-03-09T15:41:55;460.80;2252.80
55016;DHT22;40919;43.236;21.590;2023-03-09T15:44:21;460.80;2252.80
55016;DHT22;40919;43.236;21.590;2023-03-09T15:46:47;460.80;2252.80
55016;DHT22;40919;43.236;21.590;2023-03-09T15:49:13;436.10;2227.20
55016;DHT22;40919;43.236;21.590;2023-03-09T15:51:39;436.10;2227.20
55016;DHT22;40919;43.236;21.590;2023-03-09T15:54:05;436.10;2227.20
55016;DHT22;40919;43.236;21.590;2023-03-09T15:56:31;436.00;2227.20
55016;DHT22;40919;43.236;21.590;2023-03-09T15:58:58;436.00;2252.80
55016;DHT22;40919;43.236;21.590;2023-03-09T16:01:24;436.00;2252.80
55016;DHT22;40919;43.236;21.590;2023-03-09T16:03:51;435.90;2252.80
55016;DHT22;40919;43.236;21.590;2023-03-09T16:06:21;460.90;2278.40
55016;DHT22;40919;43.236;21.590;2023-03-09T16:08:47;435.90;2278.40
55016;DHT22;40919;43.236;21.590;2023-03-09T16:11:15;435.90;2278.40
55016;DHT22;40919;43.236;21.590;2023-03-09T16:25:56;435.70;2278.40
55016;DHT22;40919;43.236;21.590;2023-03-09T16:28:23;435.60;2304.00
55016;DHT22;40919;43.236;21.590;2023-03-09T16:30:49;435.50;2304.00
55016;DHT22;40919;43.236;21.590;2023-03-09T16:33:15;435.50;2304.00